GMMD

Beni Mellal Airport

Morocco
METAR GMMD 201400Z 20003KT 9999 BKN100 34/15 Q1016 NOSIG
Observed Flight Rules
Jul-20 @ 14:00 UTC (39 minutes ago) Visual Flight Rules
Wind Visibility Clouds
200° at 3 knots 10,000+ meters
  • Broken at 10,000' AGL
Temperatures Readings
Current 34°C / 93°F
Dewpoint 15°C / 59°F
Humidity 32%
Altimeter 30" Hg
Pressure 1016 hPa
Elevation 509
METAR GMMD 201400Z 20003KT 9999 BKN100 34/15 Q1016 NOSIG
Observed Flight Rules
Jul-20 @ 14:00 UTC
(39 minutes ago)
VFR
Wind Visibility
200° at 3 knots 10,000+ meters
Clouds
  • Broken at 10,000' AGL
Temperature Dewpoint
34°C / 93°F 15°C / 59°F
Humidity Altimeter Pressure
32% 30" Hg 1016 hPa